Time;durP1;ratioP1;P1;durP2;ratioP2;P2;SDS_P1;SDS_P2;PMS_P1;PMS_P2;Temp;Humidity;BMP_temperature;BMP_pressure;BME280_temperature;BME280_humidity;BME280_pressure;Samples;Min_cycle;Max_cycle;Signal;HPM_P1;HPM_P2
2023/06/05 00:05:40;;;;;;;2.83;1.37;;;13.70;1.00;;;;;;5007586;28;20442;-73
2023/06/05 00:08:19;;;;;;;4.60;1.17;;;13.70;1.00;;;;;;5015241;28;20406;-73
2023/06/05 00:10:45;;;;;;;1.43;1.33;;;13.70;1.00;;;;;;5010002;28;20650;-73
2023/06/05 00:13:10;;;;;;;14.93;1.50;;;13.70;1.00;;;;;;5011414;28;20424;-74
2023/06/05 00:15:37;;;;;;;2.60;1.33;;;13.60;1.00;;;;;;5015635;28;20870;-73
2023/06/05 00:18:08;;;;;;;7.60;1.40;;;13.70;1.00;;;;;;5016039;28;20192;-74
2023/06/05 00:27:17;;;;;;;2.30;1.40;;;13.60;1.00;;;;;;5012613;28;20907;-80
2023/06/05 00:34:00;;;;;;;1.37;1.20;;;13.60;1.00;;;;;;5014637;28;20228;-80
2023/06/05 00:36:27;;;;;;;1.67;1.40;;;13.60;1.00;;;;;;5014725;28;20436;-73
2023/06/05 00:38:53;;;;;;;1.30;1.20;;;13.60;1.00;;;;;;5006576;28;20431;-74
2023/06/05 00:41:19;;;;;;;9.60;1.80;;;13.60;1.00;;;;;;5005842;28;20431;-74
2023/06/05 00:43:45;;;;;;;5.37;1.47;;;13.60;1.00;;;;;;5007748;28;20180;-74
2023/06/05 00:46:12;;;;;;;1.47;1.10;;;13.60;1.00;;;;;;5014639;28;20176;-73
2023/06/05 00:48:39;;;;;;;1.97;1.40;;;13.60;1.00;;;;;;4996610;28;20227;-73
2023/06/05 00:51:48;;;;;;;2.10;1.50;;;13.60;1.00;;;;;;5015860;28;20506;-80
2023/06/05 00:58:25;;;;;;;1.80;1.50;;;13.50;1.00;;;;;;5015021;28;20431;-80
2023/06/05 01:01:14;;;;;;;2.20;1.23;;;13.50;1.00;;;;;;4997086;28;20439;-81
2023/06/05 01:13:54;;;;;;;3.37;1.30;;;13.40;1.00;;;;;;5014872;28;20389;-80
2023/06/05 01:19:43;;;;;;;1.40;1.30;;;13.40;1.00;;;;;;5010033;28;20431;-73
2023/06/05 01:22:09;;;;;;;2.07;1.13;;;13.40;1.00;;;;;;5012783;28;20891;-73
2023/06/05 01:24:35;;;;;;;2.00;1.60;;;13.30;1.00;;;;;;5012663;28;20413;-73
2023/06/05 01:27:15;;;;;;;6.23;1.70;;;13.30;1.00;;;;;;5014026;28;20177;-73
2023/06/05 01:30:19;;;;;;;5.40;1.73;;;13.30;1.00;;;;;;5012993;28;20427;-73
2023/06/05 01:32:54;;;;;;;8.93;1.83;;;13.30;1.00;;;;;;5009290;28;20501;-73
2023/06/05 01:35:29;;;;;;;2.30;1.60;;;13.30;1.00;;;;;;5005353;28;20498;-80
2023/06/05 01:37:59;;;;;;;1.57;1.40;;;13.30;1.00;;;;;;5014007;28;20460;-81
2023/06/05 01:43:50;;;;;;;5.03;1.60;;;13.30;1.00;;;;;;5011878;28;20395;-81
2023/06/05 01:46:20;;;;;;;2.30;1.63;;;13.30;1.00;;;;;;5014512;28;20412;-81
2023/06/05 01:48:51;;;;;;;4.10;1.33;;;13.20;1.00;;;;;;5001417;28;20399;-80
2023/06/05 01:51:19;;;;;;;4.43;1.30;;;13.20;1.00;;;;;;5008329;28;20955;-73
2023/06/05 01:53:48;;;;;;;1.43;1.33;;;13.20;1.00;;;;;;5013280;28;20418;-74
2023/06/05 01:56:19;;;;;;;1.97;1.43;;;13.30;1.00;;;;;;4994175;28;20429;-74
2023/06/05 01:58:46;;;;;;;2.33;1.70;;;13.20;1.00;;;;;;5013415;28;20410;-73
2023/06/05 02:01:15;;;;;;;1.50;1.40;;;13.10;1.00;;;;;;5013698;28;20409;-74
2023/06/05 02:03:47;;;;;;;1.40;1.30;;;13.10;1.00;;;;;;5010684;28;20432;-73
2023/06/05 02:10:13;;;;;;;2.83;1.30;;;13.00;1.00;;;;;;5013616;28;20423;-80
2023/06/05 02:13:28;;;;;;;1.73;1.40;;;13.00;1.00;;;;;;5013485;28;20855;-80
2023/06/05 02:15:56;;;;;;;2.93;1.60;;;13.00;1.00;;;;;;5013881;28;20434;-81
2023/06/05 02:35:13;;;;;;;3.37;1.40;;;12.90;1.00;;;;;;5003281;28;20358;-81
2023/06/05 02:38:31;;;;;;;7.93;1.63;;;12.90;1.00;;;;;;5013336;28;20903;-81
2023/06/05 02:44:18;;;;;;;1.73;1.10;;;12.90;1.00;;;;;;5002509;28;20386;-80
2023/06/05 02:47:24;;;;;;;1.20;1.10;;;12.90;1.00;;;;;;5013647;28;20440;-80
2023/06/05 02:50:02;;;;;;;1.43;1.33;;;12.90;1.00;;;;;;5007956;28;20230;-80
2023/06/05 02:52:35;;;;;;;1.73;1.27;;;13.00;1.00;;;;;;5008984;28;20536;-74
2023/06/05 02:55:02;;;;;;;6.93;1.20;;;13.00;1.00;;;;;;5013191;28;20756;-74
2023/06/05 02:57:28;;;;;;;1.43;1.30;;;13.10;1.00;;;;;;5013636;28;20891;-73
2023/06/05 02:59:55;;;;;;;1.63;1.30;;;13.10;1.00;;;;;;5012563;28;20399;-73
2023/06/05 03:10:01;;;;;;;3.27;1.40;;;13.20;1.00;;;;;;5006614;28;20390;-87
2023/06/05 03:13:00;;;;;;;2.73;1.40;;;13.20;1.00;;;;;;4995794;28;20460;-87
2023/06/05 03:15:31;;;;;;;1.43;1.10;;;13.20;1.00;;;;;;4977307;28;20410;-88
2023/06/05 03:21:18;;;;;;;1.93;1.37;;;13.20;1.00;;;;;;5013819;28;20428;-83
2023/06/05 03:27:05;;;;;;;4.60;1.40;;;13.20;1.00;;;;;;5012363;28;20184;-83
2023/06/05 03:32:53;;;;;;;10.43;1.93;;;13.30;1.00;;;;;;5014083;28;20569;-83
2023/06/05 03:42:06;;;;;;;9.90;1.33;;;13.30;1.00;;;;;;4997869;28;20402;-87
2023/06/05 03:47:55;;;;;;;1.40;1.20;;;13.30;1.00;;;;;;5013629;28;20474;-87
2023/06/05 03:51:06;;;;;;;5.00;1.50;;;13.40;1.00;;;;;;4999665;28;20410;-87
2023/06/05 03:53:55;;;;;;;1.53;1.10;;;13.40;1.00;;;;;;5016696;28;20418;-83
2023/06/05 04:03:04;;;;;;;2.70;1.33;;;13.50;1.00;;;;;;5016437;28;20377;-83
2023/06/05 04:08:59;;;;;;;9.30;1.60;;;13.60;1.00;;;;;;5013498;28;20679;-87
2023/06/05 04:11:28;;;;;;;5.23;1.80;;;13.70;1.00;;;;;;4990924;28;20439;-90
2023/06/05 04:17:15;;;;;;;2.13;1.50;;;13.80;1.00;;;;;;5010237;28;20435;-89
2023/06/05 04:26:26;;;;;;;2.40;1.40;;;14.00;1.00;;;;;;5012407;28;20373;-85
2023/06/05 04:29:32;;;;;;;2.60;1.80;;;14.00;1.00;;;;;;4998957;28;20432;-85
2023/06/05 04:35:21;;;;;;;2.30;1.17;;;14.10;1.00;;;;;;5016146;28;20396;-84
2023/06/05 04:37:47;;;;;;;1.70;1.40;;;14.10;1.00;;;;;;4986143;28;20470;-85
2023/06/05 04:40:14;;;;;;;1.37;1.27;;;14.10;1.00;;;;;;5010370;28;21013;-84
2023/06/05 04:42:40;;;;;;;5.00;1.80;;;14.20;1.00;;;;;;5009584;28;20926;-85
2023/06/05 04:45:36;;;;;;;5.07;1.40;;;14.20;1.00;;;;;;4994622;28;20424;-85
2023/06/05 04:51:24;;;;;;;1.90;1.80;;;14.30;1.00;;;;;;5008794;28;20810;-89
2023/06/05 04:53:55;;;;;;;1.67;1.50;;;14.40;1.00;;;;;;4998396;28;20414;-90
2023/06/05 04:56:35;;;;;;;2.67;1.50;;;14.50;1.00;;;;;;4990873;28;20519;-89
2023/06/05 05:02:23;;;;;;;6.53;2.20;;;14.60;1.00;;;;;;5003430;28;20526;-90
2023/06/05 05:08:11;;;;;;;1.83;1.60;;;14.70;1.00;;;;;;5015786;28;20755;-84
2023/06/05 05:10:37;;;;;;;2.57;1.50;;;14.80;1.00;;;;;;5015377;28;20495;-85
2023/06/05 05:13:29;;;;;;;2.10;1.60;;;14.90;1.00;;;;;;4997047;28;20292;-85
2023/06/05 05:19:26;;;;;;;4.90;1.53;;;15.10;1.00;;;;;;5013332;28;20442;-85
2023/06/05 05:25:13;;;;;;;6.13;1.50;;;14.70;1.00;;;;;;5007689;28;20427;-85
2023/06/05 05:27:55;;;;;;;1.83;1.40;;;15.60;1.00;;;;;;4993962;28;20437;-86
2023/06/05 05:30:32;;;;;;;3.17;1.40;;;15.60;1.00;;;;;;4981508;28;20263;-85
2023/06/05 05:33:14;;;;;;;2.77;1.50;;;15.70;1.00;;;;;;4989441;28;20459;-86
2023/06/05 05:36:14;;;;;;;2.53;1.60;;;15.80;1.00;;;;;;4997679;28;20560;-88
2023/06/05 05:42:02;;;;;;;3.33;1.50;;;16.00;1.00;;;;;;5003053;28;20948;-91
2023/06/05 05:45:03;;;;;;;3.23;1.87;;;16.10;1.00;;;;;;4985793;28;20944;-90
2023/06/05 05:48:24;;;;;;;12.23;2.10;;;16.30;1.00;;;;;;4985197;28;21039;-90
2023/06/05 05:54:27;;;;;;;1.60;1.50;;;16.50;1.00;;;;;;5003393;28;20483;-86
2023/06/05 05:57:12;;;;;;;20.33;1.63;;;16.70;1.00;;;;;;4997004;28;20428;-85
2023/06/05 06:00:30;;;;;;;2.10;1.70;;;16.80;1.00;;;;;;4997124;28;20433;-86
2023/06/05 06:03:33;;;;;;;4.60;1.60;;;16.90;1.00;;;;;;4997641;28;20473;-86
2023/06/05 06:09:26;;;;;;;1.67;1.57;;;17.10;1.00;;;;;;5013161;28;20786;-92
2023/06/05 06:11:55;;;;;;;1.60;1.50;;;17.20;1.00;;;;;;4996226;28;20461;-91
2023/06/05 06:14:31;;;;;;;1.53;1.43;;;17.40;1.00;;;;;;4991297;28;20434;-92
2023/06/05 06:17:02;;;;;;;2.17;1.20;;;17.50;1.00;;;;;;4996693;28;20444;-91
2023/06/05 06:20:01;;;;;;;3.23;1.80;;;17.50;1.00;;;;;;4996475;28;20426;-91
2023/06/05 06:25:51;;;;;;;4.90;1.40;;;17.80;1.00;;;;;;5007257;28;20426;-91
2023/06/05 06:29:00;;;;;;;2.73;1.50;;;17.90;1.00;;;;;;4996424;28;20460;-91
2023/06/05 06:32:00;;;;;;;10.17;1.60;;;18.00;1.00;;;;;;5010251;28;20446;-91
2023/06/05 06:38:39;;;;;;;2.30;1.90;;;18.30;1.00;;;;;;5012576;28;20940;-91
2023/06/05 06:41:13;;;;;;;3.43;1.63;;;18.40;1.00;;;;;;4996355;28;20430;-90
2023/06/05 06:43:49;;;;;;;8.00;1.70;;;18.50;1.00;;;;;;4994047;28;20507;-91
2023/06/05 06:46:31;;;;;;;5.67;1.87;;;18.70;1.00;;;;;;4995383;28;20430;-90
2023/06/05 06:52:20;;;;;;;2.10;1.30;;;18.90;1.00;;;;;;5013513;28;20481;-91
2023/06/05 06:58:07;;;;;;;1.50;1.40;;;19.10;1.00;;;;;;5004512;28;20406;-84
2023/06/05 07:00:43;;;;;;;1.87;1.53;;;19.30;1.00;;;;;;5013427;28;20423;-84
2023/06/05 07:03:54;;;;;;;1.67;1.50;;;19.40;1.00;;;;;;4996138;28;20645;-84
2023/06/05 07:10:30;;;;;;;3.40;1.43;;;19.60;1.00;;;;;;5005600;28;20420;-90
2023/06/05 07:13:29;;;;;;;4.13;1.63;;;19.80;1.00;;;;;;5000227;28;20462;-90
2023/06/05 07:16:01;;;;;;;7.60;2.20;;;19.90;1.00;;;;;;4998574;28;20425;-90
2023/06/05 07:19:00;;;;;;;2.87;1.50;;;20.00;1.00;;;;;;5011978;28;20895;-90
2023/06/05 07:24:48;;;;;;;4.87;1.70;;;20.30;1.00;;;;;;5007833;28;20428;-90
2023/06/05 07:27:31;;;;;;;3.80;1.33;;;20.40;1.00;;;;;;4999848;28;20436;-90
2023/06/05 07:30:02;;;;;;;3.07;1.23;;;20.60;1.00;;;;;;4996824;28;20485;-87
2023/06/05 07:33:00;;;;;;;6.57;1.83;;;20.70;1.00;;;;;;4996090;28;20872;-90
2023/06/05 07:35:37;;;;;;;2.07;1.43;;;20.80;1.00;;;;;;5000057;28;20421;-90
2023/06/05 07:38:07;;;;;;;2.97;1.50;;;20.90;1.00;;;;;;5000123;28;20922;-89
2023/06/05 07:44:01;;;;;;;2.77;1.53;;;21.10;1.00;;;;;;5000481;28;20466;-86
2023/06/05 07:46:31;;;;;;;2.53;1.50;;;21.20;1.00;;;;;;4998357;28;20439;-87
2023/06/05 07:49:33;;;;;;;6.43;1.83;;;21.20;1.00;;;;;;4991993;28;20425;-88
2023/06/05 07:51:59;;;;;;;4.33;1.57;;;21.30;1.00;;;;;;4999027;28;20523;-91
2023/06/05 07:58:01;;;;;;;3.60;1.70;;;21.60;1.00;;;;;;5012960;28;20446;-91
2023/06/05 08:00:37;;;;;;;6.20;1.77;;;21.60;1.00;;;;;;4997394;28;20445;-91
2023/06/05 08:03:07;;;;;;;2.97;2.07;;;21.70;1.00;;;;;;4998677;28;20434;-91
2023/06/05 08:06:02;;;;;;;3.27;1.70;;;21.80;1.00;;;;;;4998704;28;20486;-91
2023/06/05 08:08:37;;;;;;;2.10;1.67;;;22.00;1.00;;;;;;4999976;28;20436;-88
2023/06/05 08:11:49;;;;;;;8.00;1.70;;;22.10;1.00;;;;;;4996850;28;20422;-87
2023/06/05 08:14:19;;;;;;;2.60;1.50;;;22.20;1.00;;;;;;4991622;28;20439;-87
2023/06/05 08:16:45;;;;;;;1.93;1.73;;;22.30;1.00;;;;;;4994075;28;20438;-87
2023/06/05 08:20:00;;;;;;;3.70;2.07;;;22.40;1.00;;;;;;4994889;28;20433;-87
2023/06/05 08:23:01;;;;;;;6.20;1.97;;;22.50;1.00;;;;;;4999062;28;20540;-86
2023/06/05 08:25:37;;;;;;;4.20;1.30;;;22.60;1.00;;;;;;4990336;28;20420;-87
2023/06/05 08:28:02;;;;;;;7.23;1.60;;;22.70;1.00;;;;;;4992267;28;20497;-86
2023/06/05 08:30:28;;;;;;;2.43;1.90;;;22.70;1.00;;;;;;4997118;28;20876;-87
2023/06/05 08:32:53;;;;;;;5.70;1.50;;;22.80;1.00;;;;;;4995387;28;20207;-87
2023/06/05 08:35:19;;;;;;;3.37;1.83;;;22.90;1.00;;;;;;4997452;28;20195;-87
2023/06/05 08:37:45;;;;;;;10.50;1.80;;;23.10;1.00;;;;;;5014501;28;20180;-87
2023/06/05 08:40:12;;;;;;;3.23;1.50;;;23.20;1.00;;;;;;4997007;28;20188;-87
2023/06/05 08:42:38;;;;;;;9.57;1.80;;;23.40;1.00;;;;;;4991446;28;20193;-86
2023/06/05 08:45:07;;;;;;;5.27;1.70;;;23.60;1.00;;;;;;4996970;28;20585;-87
2023/06/05 08:47:36;;;;;;;4.40;2.00;;;23.70;1.00;;;;;;4997018;28;20471;-87
2023/06/05 08:50:07;;;;;;;5.70;1.70;;;23.80;1.00;;;;;;4992994;28;20444;-87
2023/06/05 08:52:37;;;;;;;5.63;1.90;;;23.70;1.00;;;;;;4995571;28;20467;-87
2023/06/05 08:55:31;;;;;;;3.00;1.83;;;23.80;1.00;;;;;;4996458;28;20453;-88
2023/06/05 08:58:03;;;;;;;1.90;1.57;;;23.80;1.00;;;;;;4988212;28;20526;-88
2023/06/05 09:00:31;;;;;;;2.27;1.70;;;23.90;1.00;;;;;;4996948;28;20928;-88
2023/06/05 09:03:30;;;;;;;4.20;1.90;;;24.00;1.00;;;;;;5006243;28;20979;-87
2023/06/05 09:05:56;;;;;;;5.13;1.87;;;24.10;1.00;;;;;;4996784;28;20544;-88
2023/06/05 09:08:37;;;;;;;1.70;1.37;;;24.20;1.00;;;;;;4997511;28;20934;-86
2023/06/05 09:11:31;;;;;;;9.27;1.60;;;24.40;1.00;;;;;;4998341;28;20669;-87
2023/06/05 09:14:01;;;;;;;3.13;1.60;;;24.50;1.00;;;;;;5012615;28;20513;-82
2023/06/05 09:17:02;;;;;;;4.57;1.77;;;24.60;1.00;;;;;;4997280;28;20802;-82
2023/06/05 09:20:02;;;;;;;5.90;2.07;;;24.70;1.00;;;;;;5014448;28;20464;-82
2023/06/05 09:26:30;;;;;;;5.83;1.77;;;25.00;1.00;;;;;;5014756;28;20398;-82
2023/06/05 09:29:02;;;;;;;5.43;2.10;;;25.10;1.00;;;;;;5006183;28;20434;-82
2023/06/05 09:31:43;;;;;;;7.30;2.10;;;25.30;1.00;;;;;;5014227;28;20457;-82
2023/06/05 09:35:05;;;;;;;3.67;2.37;;;25.40;1.00;;;;;;5013118;28;20438;-82
2023/06/05 09:38:01;;;;;;;2.27;1.80;;;25.40;1.00;;;;;;5013711;28;20418;-81
2023/06/05 09:44:24;;;;;;;6.87;1.63;;;25.70;1.00;;;;;;5014595;28;20453;-89
2023/06/05 09:47:05;;;;;;;8.83;1.77;;;25.70;1.00;;;;;;5013714;28;20476;-90
2023/06/05 09:49:43;;;;;;;3.00;2.00;;;25.80;1.00;;;;;;4983748;28;20442;-89
2023/06/05 09:52:38;;;;;;;3.50;1.67;;;25.90;1.00;;;;;;4997314;28;20450;-89
2023/06/05 09:58:26;;;;;;;5.67;1.93;;;26.00;1.00;;;;;;5005707;28;20432;-82
2023/06/05 10:01:07;;;;;;;6.37;1.80;;;26.20;1.00;;;;;;5011960;28;20411;-82
2023/06/05 10:07:01;;;;;;;3.73;1.83;;;26.40;1.00;;;;;;5010972;28;20822;-82
2023/06/05 10:09:49;;;;;;;2.73;1.53;;;26.40;1.00;;;;;;5014099;28;20475;-85
2023/06/05 10:16:01;;;;;;;3.60;1.73;;;26.70;1.00;;;;;;5013533;28;20423;-82
2023/06/05 10:22:30;;;;;;;2.73;1.50;;;26.90;1.00;;;;;;5003318;28;20480;-83
2023/06/05 10:25:31;;;;;;;1.73;1.63;;;27.00;1.00;;;;;;5014028;28;20428;-83
2023/06/05 10:28:07;;;;;;;5.37;1.60;;;27.00;1.00;;;;;;5013247;28;20413;-83
2023/06/05 10:31:10;;;;;;;1.83;1.73;;;27.00;1.00;;;;;;5009086;28;20440;-82
2023/06/05 10:34:00;;;;;;;7.67;1.97;;;27.20;1.00;;;;;;5010780;28;20933;-82
2023/06/05 10:36:45;;;;;;;4.73;1.40;;;27.20;1.00;;;;;;5003782;28;20446;-83
2023/06/05 10:42:34;;;;;;;4.60;1.50;;;27.30;1.00;;;;;;5005777;28;21370;-81
2023/06/05 10:45:01;;;;;;;3.23;1.60;;;27.40;1.00;;;;;;5013084;28;20445;-81
2023/06/05 10:47:32;;;;;;;8.60;1.80;;;27.50;1.00;;;;;;5013204;28;20435;-84
2023/06/05 10:50:26;;;;;;;2.70;1.50;;;27.60;1.00;;;;;;4986509;28;20517;-81
2023/06/05 10:53:01;;;;;;;8.17;2.07;;;27.60;1.00;;;;;;5014494;28;20465;-80
2023/06/05 10:55:42;;;;;;;6.63;1.50;;;27.70;1.00;;;;;;5016947;28;20454;-85
2023/06/05 10:58:31;;;;;;;6.90;1.50;;;27.70;1.00;;;;;;5012445;28;20430;-92
2023/06/05 11:01:31;;;;;;;3.73;1.70;;;27.90;1.00;;;;;;5006683;28;20430;-87
2023/06/05 11:04:01;;;;;;;5.10;1.60;;;27.90;1.00;;;;;;5000435;28;20922;-87
2023/06/05 11:07:21;;;;;;;10.13;1.57;;;27.80;1.00;;;;;;4997070;28;20439;-88
2023/06/05 11:13:08;;;;;;;5.60;1.50;;;28.00;1.00;;;;;;4970159;28;20546;-81
2023/06/05 11:16:01;;;;;;;9.30;2.07;;;28.10;1.00;;;;;;4969256;28;20430;-82
2023/06/05 11:18:33;;;;;;;3.20;1.50;;;28.30;1.00;;;;;;4975968;28;20206;-81
2023/06/05 11:21:02;;;;;;;3.43;1.70;;;28.50;1.00;;;;;;4973790;28;20482;-80
2023/06/05 11:23:29;;;;;;;3.90;1.40;;;28.60;1.00;;;;;;4963799;28;20448;-80
2023/06/05 11:26:30;;;;;;;3.33;1.83;;;28.60;1.00;;;;;;4957204;28;20794;-83
2023/06/05 11:29:01;;;;;;;2.10;1.63;;;28.70;1.00;;;;;;4958637;28;20511;-82
2023/06/05 11:32:10;;;;;;;3.10;1.90;;;28.80;1.00;;;;;;4954063;29;20446;-83
2023/06/05 11:35:01;;;;;;;3.33;1.77;;;28.70;1.00;;;;;;4957378;28;20423;-82
2023/06/05 11:37:34;;;;;;;3.40;1.67;;;28.70;1.00;;;;;;4961944;28;20528;-82
2023/06/05 11:40:20;;;;;;;4.70;1.70;;;28.70;1.00;;;;;;4972478;28;20420;-78
2023/06/05 11:42:49;;;;;;;1.70;1.60;;;28.70;1.00;;;;;;4966215;28;20447;-79
2023/06/05 11:45:38;;;;;;;8.13;1.90;;;28.80;1.00;;;;;;5016456;28;20460;-80
2023/06/05 11:48:55;;;;;;;3.43;1.77;;;28.80;1.00;;;;;;5002768;28;20445;-79
2023/06/05 11:52:07;;;;;;;1.90;1.80;;;28.80;1.00;;;;;;4989875;28;20456;-78
2023/06/05 11:57:54;;;;;;;22.47;1.90;;;29.10;1.00;;;;;;5010012;28;20433;-75
2023/06/05 12:00:25;;;;;;;10.73;2.00;;;29.20;1.00;;;;;;5005824;28;20435;-75
2023/06/05 12:02:51;;;;;;;42.67;2.63;;;29.30;1.00;;;;;;5012739;28;20918;-74
2023/06/05 12:05:17;;;;;;;3.60;1.57;;;29.30;1.00;;;;;;5015907;28;20442;-75
2023/06/05 12:07:43;;;;;;;3.53;1.87;;;29.30;1.00;;;;;;5016119;28;20188;-75
2023/06/05 12:10:09;;;;;;;3.07;1.70;;;29.30;1.00;;;;;;5015894;28;20551;-74
2023/06/05 12:12:55;;;;;;;3.47;1.60;;;29.20;1.00;;;;;;5016206;28;20540;-74
2023/06/05 12:15:22;;;;;;;9.57;1.60;;;29.20;1.00;;;;;;5016045;28;20446;-74
2023/06/05 12:17:56;;;;;;;3.57;1.63;;;29.30;1.00;;;;;;5014938;28;20432;-75
2023/06/05 12:20:22;;;;;;;18.80;2.00;;;29.30;1.00;;;;;;5013901;28;20791;-74
2023/06/05 12:22:49;;;;;;;2.43;1.63;;;29.30;1.00;;;;;;5007941;28;20494;-75
2023/06/05 12:25:22;;;;;;;5.00;1.77;;;29.40;1.00;;;;;;5016020;28;20465;-75
2023/06/05 12:27:52;;;;;;;11.10;1.80;;;29.40;1.00;;;;;;5015753;28;20420;-75
2023/06/05 12:30:19;;;;;;;4.93;1.60;;;29.40;1.00;;;;;;5007562;28;20416;-75
2023/06/05 12:32:45;;;;;;;2.13;1.50;;;29.40;1.00;;;;;;5013726;28;20499;-75
2023/06/05 12:35:21;;;;;;;5.83;2.07;;;29.50;1.00;;;;;;5015210;28;20459;-75
2023/06/05 12:37:48;;;;;;;1.90;1.80;;;29.50;1.00;;;;;;5013002;28;20435;-75
2023/06/05 12:40:22;;;;;;;2.60;2.03;;;29.50;1.00;;;;;;5015720;28;20420;-75
2023/06/05 12:42:48;;;;;;;2.20;1.50;;;29.70;1.00;;;;;;5013994;28;20791;-75
2023/06/05 12:45:15;;;;;;;2.43;1.67;;;29.60;1.00;;;;;;5014884;28;20436;-75
2023/06/05 12:47:42;;;;;;;1.97;1.57;;;29.70;1.00;;;;;;5003370;28;20418;-75
2023/06/05 12:50:19;;;;;;;1.90;1.73;;;29.70;1.00;;;;;;5015501;28;20408;-75
2023/06/05 12:52:45;;;;;;;3.53;2.00;;;29.80;1.00;;;;;;5003335;28;20499;-75
2023/06/05 12:55:11;;;;;;;1.87;1.77;;;29.80;1.00;;;;;;5010609;28;20479;-74
2023/06/05 12:58:07;;;;;;;3.57;1.57;;;29.80;1.00;;;;;;5011438;28;20188;-80
2023/06/05 13:01:04;;;;;;;4.87;1.57;;;29.90;1.00;;;;;;5002926;28;20874;-80
2023/06/05 13:03:33;;;;;;;3.47;1.77;;;30.10;1.00;;;;;;5015059;28;20774;-80
2023/06/05 13:09:20;;;;;;;13.70;2.23;;;30.10;1.00;;;;;;5014647;28;20395;-80
2023/06/05 13:11:49;;;;;;;3.70;1.97;;;30.10;1.00;;;;;;5006507;28;20467;-74
2023/06/05 13:14:15;;;;;;;3.60;1.63;;;30.10;1.00;;;;;;5009131;28;20182;-75
2023/06/05 13:16:41;;;;;;;5.40;1.67;;;30.20;1.00;;;;;;5013080;28;20510;-75
2023/06/05 13:19:07;;;;;;;4.40;1.53;;;30.30;1.00;;;;;;5010160;28;20517;-75
2023/06/05 13:21:32;;;;;;;2.03;1.70;;;30.50;1.00;;;;;;5014277;28;20617;-75
2023/06/05 13:23:58;;;;;;;2.20;2.10;;;30.50;1.00;;;;;;5009355;28;20231;-74
2023/06/05 13:29:46;;;;;;;1.67;1.57;;;30.40;1.00;;;;;;5014575;28;20181;-80
2023/06/05 13:32:19;;;;;;;6.13;1.87;;;30.50;1.00;;;;;;5014631;28;20456;-80
2023/06/05 13:35:01;;;;;;;5.10;2.00;;;30.50;1.00;;;;;;5014218;28;20178;-80
2023/06/05 13:41:25;;;;;;;1.57;1.47;;;30.70;1.00;;;;;;5005221;28;20423;-80
2023/06/05 13:44:19;;;;;;;14.27;2.00;;;30.80;1.00;;;;;;5014435;28;20441;-80
2023/06/05 13:50:07;;;;;;;4.20;1.80;;;30.90;1.00;;;;;;5014212;28;20415;-80
2023/06/05 13:56:37;;;;;;;2.17;2.00;;;30.90;1.00;;;;;;5013419;28;20522;-80
2023/06/05 14:05:46;;;;;;;2.80;1.70;;;31.10;1.00;;;;;;5012964;28;20474;-81
2023/06/05 14:09:01;;;;;;;5.27;1.80;;;31.20;1.00;;;;;;5013297;28;20416;-80
2023/06/05 14:11:49;;;;;;;13.63;2.53;;;31.10;1.00;;;;;;5007267;28;20181;-80
2023/06/05 14:14:15;;;;;;;4.50;1.70;;;31.20;1.00;;;;;;5002479;28;20428;-75
2023/06/05 14:16:40;;;;;;;3.00;1.63;;;31.40;1.00;;;;;;5013183;28;20491;-75
2023/06/05 14:19:06;;;;;;;5.27;2.20;;;31.40;1.00;;;;;;5013074;28;20633;-75
2023/06/05 14:21:31;;;;;;;2.40;1.70;;;31.30;1.00;;;;;;5013112;28;20173;-75
2023/06/05 14:23:57;;;;;;;3.77;1.97;;;31.50;1.00;;;;;;5012603;28;20567;-75
2023/06/05 14:26:23;;;;;;;1.83;1.73;;;31.60;1.00;;;;;;5013025;28;20249;-75
2023/06/05 14:28:49;;;;;;;2.20;2.00;;;31.60;1.00;;;;;;5013444;28;20208;-80
2023/06/05 14:35:01;;;;;;;1.77;1.67;;;31.60;1.00;;;;;;5000930;28;20474;-80
2023/06/05 14:37:55;;;;;;;3.77;2.07;;;31.70;1.00;;;;;;5012625;28;20420;-81
2023/06/05 14:41:01;;;;;;;1.73;1.47;;;31.70;1.00;;;;;;5011856;28;20455;-81
2023/06/05 14:43:27;;;;;;;5.33;1.73;;;31.70;1.00;;;;;;5012045;28;20424;-75
2023/06/05 14:45:53;;;;;;;2.13;1.93;;;31.60;1.00;;;;;;5012935;28;20745;-74
2023/06/05 14:48:19;;;;;;;2.80;2.00;;;31.40;1.00;;;;;;5010996;28;20432;-75
2023/06/05 14:50:46;;;;;;;3.97;2.00;;;31.50;1.00;;;;;;5012879;28;20181;-75
2023/06/05 14:53:12;;;;;;;1.60;1.50;;;31.60;1.00;;;;;;5012653;28;20199;-75
2023/06/05 14:55:38;;;;;;;2.10;1.77;;;31.50;1.00;;;;;;4973244;28;1138072;-75
2023/06/05 15:01:55;;;;;;;2.53;1.77;;;31.20;1.00;;;;;;5013296;28;20195;-80
2023/06/05 15:04:26;;;;;;;2.67;1.43;;;31.30;1.00;;;;;;4992169;28;20829;-80
2023/06/05 15:07:17;;;;;;;3.57;2.07;;;31.20;1.00;;;;;;5009477;28;20436;-80
2023/06/05 15:10:19;;;;;;;1.50;1.40;;;31.20;1.00;;;;;;5011009;28;20896;-80
2023/06/05 15:12:45;;;;;;;9.40;1.90;;;32.10;1.00;;;;;;5012351;28;20477;-75
2023/06/05 15:15:11;;;;;;;16.57;1.70;;;33.10;1.00;;;;;;5008626;28;20535;-75
2023/06/05 15:17:36;;;;;;;1.67;1.57;;;33.80;1.00;;;;;;5012817;28;20185;-75
2023/06/05 15:20:05;;;;;;;2.83;1.93;;;35.40;1.00;;;;;;5013344;28;20217;-75
2023/06/05 15:22:31;;;;;;;2.50;1.67;;;37.00;1.00;;;;;;5002367;28;20244;-76
2023/06/05 15:25:01;;;;;;;1.80;1.70;;;38.70;1.00;;;;;;5006477;28;20436;-76
2023/06/05 15:27:31;;;;;;;3.33;1.60;;;39.80;1.00;;;;;;5012666;28;20452;-79
2023/06/05 15:29:57;;;;;;;1.53;1.43;;;40.80;1.00;;;;;;5015523;28;20764;-75
2023/06/05 15:32:23;;;;;;;1.50;1.40;;;41.90;1.00;;;;;;5015882;28;20471;-75
2023/06/05 15:34:49;;;;;;;5.53;1.50;;;42.70;1.00;;;;;;5016588;28;20264;-76
2023/06/05 15:40:55;;;;;;;822.00;619.30;;;44.30;1.00;;;;;;5016243;28;20550;-86
2023/06/05 15:43:25;;;;;;;1120.00;894.60;;;45.00;1.00;;;;;;5017143;28;20958;-89
2023/06/05 15:46:08;;;;;;;1072.30;959.43;;;45.40;1.00;;;;;;5004625;28;20424;-88
2023/06/05 15:49:01;;;;;;;1057.10;938.20;;;45.60;1.00;;;;;;5011882;28;20494;-89
2023/06/05 15:51:55;;;;;;;1056.17;945.93;;;45.70;1.00;;;;;;5015978;28;20428;-88
2023/06/05 15:54:32;;;;;;;1002.87;894.47;;;46.10;1.00;;;;;;4992212;28;20439;-87
2023/06/05 15:57:13;;;;;;;968.07;866.37;;;46.80;1.00;;;;;;5014264;28;20542;-87
2023/06/05 16:03:25;;;;;;;914.93;834.50;;;46.60;1.00;;;;;;5002151;28;20423;-88
2023/06/05 16:09:13;;;;;;;1077.33;971.30;;;47.40;1.00;;;;;;5016417;28;20414;-88
2023/06/05 16:22:31;;;;;;;919.03;777.97;;;47.00;1.00;;;;;;5013617;28;20406;-86
2023/06/05 16:28:18;;;;;;;793.87;505.93;;;46.80;1.00;;;;;;5011346;28;20426;-87
2023/06/05 16:30:57;;;;;;;3.73;1.20;;;46.90;1.00;;;;;;5015492;28;20432;-92
2023/06/05 16:36:44;;;;;;;808.37;706.47;;;47.20;1.00;;;;;;5015828;28;20436;-85
2023/06/05 16:39:38;;;;;;;811.53;612.90;;;46.80;1.00;;;;;;5014606;28;20978;-84
2023/06/05 16:42:14;;;;;;;675.43;556.63;;;47.10;1.00;;;;;;5002447;28;20189;-83
2023/06/05 16:45:13;;;;;;;571.83;510.40;;;47.00;1.00;;;;;;5015804;28;20419;-89
2023/06/05 16:48:10;;;;;;;791.20;638.33;;;46.60;1.00;;;;;;5015833;28;20473;-89
2023/06/05 16:54:00;;;;;;;1.63;1.20;;;46.40;1.00;;;;;;5008020;28;20430;-84
2023/06/05 17:03:10;;;;;;;1.37;1.27;;;46.60;1.00;;;;;;5003719;28;20423;-85
2023/06/05 17:09:09;;;;;;;126.87;92.33;;;47.00;1.00;;;;;;5015119;28;20269;-85
2023/06/05 17:14:56;;;;;;;5.70;1.50;;;46.80;1.00;;;;;;5007117;28;20422;-83
2023/06/05 17:20:44;;;;;;;7.00;3.23;;;46.00;1.00;;;;;;5001497;28;20558;-84
2023/06/05 17:23:43;;;;;;;306.17;186.73;;;45.50;1.00;;;;;;5014733;28;20416;-84
2023/06/05 17:26:55;;;;;;;693.80;463.67;;;44.60;1.00;;;;;;5007391;28;20431;-84
2023/06/05 17:30:01;;;;;;;2.97;1.67;;;44.50;1.00;;;;;;5010424;28;20428;-85
2023/06/05 17:32:44;;;;;;;3.73;2.53;;;43.90;1.00;;;;;;4996241;28;20463;-85
2023/06/05 17:38:31;;;;;;;1.77;1.60;;;42.90;1.00;;;;;;5014871;28;20399;-88
2023/06/05 17:41:37;;;;;;;3.10;1.40;;;42.40;1.00;;;;;;4997524;28;20870;-86
2023/06/05 17:50:46;;;;;;;327.10;261.93;;;38.70;1.00;;;;;;4995306;28;20403;-83
2023/06/05 17:56:35;;;;;;;11.20;2.90;;;35.30;1.00;;;;;;5001420;28;20619;-85
2023/06/05 17:59:25;;;;;;;3.20;1.70;;;33.80;1.00;;;;;;5013395;28;20442;-88
2023/06/05 18:05:54;;;;;;;6.33;2.07;;;31.40;1.00;;;;;;5006537;28;20411;-83
2023/06/05 18:08:49;;;;;;;74.20;33.17;;;30.10;1.00;;;;;;5004848;28;20486;-83
2023/06/05 18:11:49;;;;;;;3.20;2.90;;;29.30;1.00;;;;;;4997624;28;20436;-83
2023/06/05 18:17:50;;;;;;;10.83;9.20;;;27.90;1.00;;;;;;5014089;28;20501;-85
2023/06/05 18:20:32;;;;;;;27.87;8.80;;;27.30;1.00;;;;;;5012142;28;20779;-85
2023/06/05 18:29:42;;;;;;;4.10;2.30;;;26.10;1.00;;;;;;5006962;28;20416;-84
2023/06/05 18:32:37;;;;;;;8.83;6.00;;;25.70;1.00;;;;;;5013690;28;20467;-85
2023/06/05 18:35:09;;;;;;;10.40;2.10;;;25.50;1.00;;;;;;5013973;28;20187;-85
2023/06/05 18:40:57;;;;;;;4.40;1.87;;;25.00;1.00;;;;;;5006486;28;20409;-84
2023/06/05 18:50:49;;;;;;;3.53;2.07;;;24.40;1.00;;;;;;5001478;28;20465;-85
2023/06/05 18:56:36;;;;;;;11.53;2.27;;;23.90;1.00;;;;;;5000948;28;20447;-84
2023/06/05 18:59:14;;;;;;;806.10;362.47;;;23.80;1.00;;;;;;4996301;28;20513;-84
2023/06/05 19:02:01;;;;;;;693.37;220.37;;;23.60;1.00;;;;;;5013764;28;20177;-84
2023/06/05 19:04:55;;;;;;;3.17;2.40;;;23.50;1.00;;;;;;4993527;28;20456;-84
2023/06/05 19:07:31;;;;;;;5.97;2.50;;;23.40;1.00;;;;;;4990444;28;20424;-84